Time;durP1;ratioP1;P1;durP2;ratioP2;P2;SDS_P1;SDS_P2;PMS_P1;PMS_P2;Temp;Humidity;BMP_temperature;BMP_pressure;BME280_temperature;BME280_humidity;BME280_pressure;Samples;Min_cycle;Max_cycle;Signal;HPM_P1;HPM_P2
2023/06/30 00:16:21;;;;;;;6.87;4.60;;;;;;;;;;4988164;28;21022;-68
2023/06/30 00:22:47;;;;;;;9.37;6.13;;;;;;;;;;4988250;28;20320;-68
2023/06/30 00:29:14;;;;;;;10.23;6.00;;;;;;;;;;4988231;28;20945;-67
2023/06/30 00:35:39;;;;;;;8.97;5.30;;;;;;;;;;4988227;28;20183;-67
2023/06/30 00:42:06;;;;;;;6.20;4.90;;;;;;;;;;4988065;28;20251;-67
2023/06/30 00:48:31;;;;;;;8.07;4.87;;;;;;;;;;4988058;28;20203;-67
2023/06/30 01:31:19;;;;;;;6.40;4.90;;;;;;;;;;4968061;28;20224;-67
2023/06/30 01:37:44;;;;;;;6.93;5.00;;;;;;;;;;4945317;28;20232;-67
2023/06/30 01:44:10;;;;;;;7.10;4.90;;;;;;;;;;4987568;28;20227;-67
2023/06/30 01:50:36;;;;;;;7.10;5.20;;;;;;;;;;4991252;28;20268;-67
2023/06/30 01:57:02;;;;;;;7.10;5.37;;;;;;;;;;4990884;28;20199;-67
2023/06/30 02:03:29;;;;;;;7.30;5.20;;;;;;;;;;4956051;28;20227;-67
2023/06/30 02:09:55;;;;;;;9.03;5.53;;;;;;;;;;4938567;28;20232;-67
2023/06/30 02:16:21;;;;;;;9.53;5.10;;;;;;;;;;4896152;29;20618;-66
2023/06/30 02:22:48;;;;;;;6.23;4.67;;;;;;;;;;4970998;28;20244;-66
2023/06/30 02:33:21;;;;;;;9.23;4.90;;;;;;;;;;5010058;28;20177;-67
2023/06/30 02:39:51;;;;;;;5.20;4.40;;;;;;;;;;5007829;28;20594;-67
2023/06/30 02:46:18;;;;;;;4.53;4.13;;;;;;;;;;4999800;28;20198;-66
2023/06/30 02:52:45;;;;;;;6.77;4.30;;;;;;;;;;4987911;28;20623;-67
2023/06/30 02:59:12;;;;;;;5.27;4.13;;;;;;;;;;5004033;28;20689;-66
2023/06/30 03:06:14;;;;;;;5.60;4.77;;;;;;;;;;4929592;29;20181;-66
2023/06/30 03:12:41;;;;;;;5.23;4.50;;;;;;;;;;4943581;28;20594;-66
2023/06/30 03:19:07;;;;;;;5.83;4.40;;;;;;;;;;4941342;28;20269;-65
2023/06/30 03:25:34;;;;;;;4.70;3.97;;;;;;;;;;4932644;29;20225;-66
2023/06/30 03:36:12;;;;;;;5.97;4.30;;;;;;;;;;4947024;28;20309;-66
2023/06/30 03:42:38;;;;;;;6.33;4.37;;;;;;;;;;4967854;28;20679;-67
2023/06/30 03:49:05;;;;;;;6.30;3.67;;;;;;;;;;4986741;28;20233;-67
2023/06/30 03:55:32;;;;;;;5.97;3.80;;;;;;;;;;4986847;28;20194;-68
2023/06/30 04:01:58;;;;;;;4.03;3.63;;;;;;;;;;4954230;28;20440;-66
2023/06/30 04:13:08;;;;;;;4.57;4.03;;;;;;;;;;4869022;29;20214;-64
2023/06/30 04:23:27;;;;;;;5.27;3.90;;;;;;;;;;4954356;28;20267;-67
2023/06/30 04:29:54;;;;;;;6.30;4.57;;;;;;;;;;4986876;28;20208;-67
2023/06/30 04:36:29;;;;;;;7.17;4.03;;;;;;;;;;4965761;28;20427;-67
2023/06/30 04:42:55;;;;;;;5.57;4.00;;;;;;;;;;4948477;28;20303;-67
2023/06/30 04:49:22;;;;;;;5.50;3.93;;;;;;;;;;4989763;28;20188;-67
2023/06/30 04:59:51;;;;;;;4.40;3.80;;;;;;;;;;4937864;29;20209;-68
2023/06/30 05:06:53;;;;;;;6.03;4.00;;;;;;;;;;4969262;28;20235;-68
2023/06/30 05:13:13;;;;;;;5.33;4.00;;;;;;;;;;4984238;28;20223;-67
2023/06/30 05:23:44;;;;;;;5.03;4.00;;;;;;;;;;4947083;28;20295;-67
2023/06/30 05:30:10;;;;;;;5.60;4.10;;;;;;;;;;4994028;28;20187;-68
2023/06/30 05:36:36;;;;;;;6.87;3.80;;;;;;;;;;5007139;28;20234;-67
2023/06/30 05:43:03;;;;;;;5.10;3.53;;;;;;;;;;4976867;28;20251;-66
2023/06/30 05:56:39;;;;;;;5.17;4.07;;;;;;;;;;5007196;28;20279;-65
2023/06/30 06:03:06;;;;;;;5.33;3.67;;;;;;;;;;4986617;28;20247;-65
2023/06/30 06:09:33;;;;;;;6.40;4.10;;;;;;;;;;5007077;28;20198;-65
2023/06/30 06:16:00;;;;;;;5.47;3.90;;;;;;;;;;4995327;28;20207;-66
2023/06/30 06:22:26;;;;;;;6.80;3.70;;;;;;;;;;4993361;28;20311;-66
2023/06/30 06:28:53;;;;;;;5.23;3.57;;;;;;;;;;4987396;28;20242;-66
2023/06/30 06:39:33;;;;;;;4.90;3.60;;;;;;;;;;5005459;28;20206;-66
2023/06/30 06:45:59;;;;;;;6.67;4.40;;;;;;;;;;4996497;28;20222;-64
2023/06/30 06:52:26;;;;;;;6.40;4.20;;;;;;;;;;5008144;28;20182;-65
2023/06/30 06:58:53;;;;;;;7.83;3.90;;;;;;;;;;4994474;28;20269;-64
2023/06/30 07:09:49;;;;;;;6.50;4.30;;;;;;;;;;4940181;28;20236;-64
2023/06/30 07:20:46;;;;;;;7.60;4.63;;;;;;;;;;4925817;28;20727;-68
2023/06/30 07:31:18;;;;;;;5.47;4.83;;;;;;;;;;4898803;29;20671;-67
2023/06/30 07:41:55;;;;;;;6.57;4.83;;;;;;;;;;4960819;28;20263;-67
2023/06/30 07:48:57;;;;;;;7.27;5.27;;;;;;;;;;4870693;29;20181;-65
2023/06/30 07:55:23;;;;;;;7.57;4.80;;;;;;;;;;4922276;28;21073;-69
2023/06/30 08:02:14;;;;;;;5.70;5.10;;;;;;;;;;4967164;28;20227;-68
2023/06/30 08:08:41;;;;;;;7.10;5.13;;;;;;;;;;4949007;28;20231;-65
2023/06/30 08:15:07;;;;;;;5.87;4.57;;;;;;;;;;4967403;28;20608;-67
2023/06/30 08:21:33;;;;;;;6.97;4.17;;;;;;;;;;4927948;28;20240;-66
2023/06/30 08:27:59;;;;;;;4.53;3.83;;;;;;;;;;4936821;28;20593;-65
2023/06/30 08:34:26;;;;;;;5.90;3.70;;;;;;;;;;4959954;28;20223;-66
2023/06/30 08:45:03;;;;;;;5.33;3.63;;;;;;;;;;4924931;29;20931;-64
2023/06/30 08:51:29;;;;;;;5.93;3.43;;;;;;;;;;5004931;28;20191;-65
2023/06/30 08:57:58;;;;;;;5.03;3.50;;;;;;;;;;4873540;29;20229;-66
2023/06/30 09:04:31;;;;;;;7.90;3.20;;;;;;;;;;4989805;28;20227;-68
2023/06/30 10:43:06;;;;;;;7.33;6.60;;;;;;;;;;4916421;28;20908;-67
2023/06/30 10:49:33;;;;;;;7.10;6.40;;;;;;;;;;4988677;28;20662;-66
2023/06/30 11:11:23;;;;;;;10.17;8.10;;;;;;;;;;4950526;28;20742;-66
2023/06/30 11:22:18;;;;;;;8.67;7.77;;;;;;;;;;4922944;28;20266;-67
2023/06/30 11:33:32;;;;;;;8.97;7.93;;;;;;;;;;4861338;29;20232;-67
2023/06/30 12:17:57;;;;;;;9.33;8.43;;;;;;;;;;4931728;29;20238;-67
2023/06/30 12:24:24;;;;;;;9.43;7.43;;;;;;;;;;4968377;28;20220;-67
2023/06/30 12:30:50;;;;;;;13.20;7.10;;;;;;;;;;4969276;28;20211;-67
2023/06/30 12:37:17;;;;;;;9.87;5.57;;;;;;;;;;4949611;29;20225;-66
2023/06/30 12:43:45;;;;;;;6.87;5.70;;;;;;;;;;4949005;29;20193;-66
2023/06/30 12:54:22;;;;;;;9.57;6.33;;;;;;;;;;4968374;28;21022;-67
2023/06/30 13:00:48;;;;;;;8.03;6.83;;;;;;;;;;4968948;28;20786;-67
2023/06/30 13:07:25;;;;;;;7.93;6.77;;;;;;;;;;4968488;28;20593;-67
2023/06/30 13:22:46;;;;;;;7.77;6.90;;;;;;;;;;4848521;29;20352;-71
2023/06/30 13:33:37;;;;;;;10.83;8.27;;;;;;;;;;4871264;29;20201;-71
2023/06/30 13:44:03;;;;;;;11.97;9.80;;;;;;;;;;4926536;29;20337;-70
2023/06/30 15:21:22;;;;;;;12.70;9.83;;;;;;;;;;4969884;28;20248;-70
2023/06/30 15:28:25;;;;;;;13.50;10.00;;;;;;;;;;4989051;28;20179;-70
2023/06/30 15:34:51;;;;;;;13.93;10.27;;;;;;;;;;4989133;28;20922;-70
2023/06/30 15:41:17;;;;;;;14.73;11.17;;;;;;;;;;4988292;28;20223;-70
2023/06/30 15:47:47;;;;;;;16.63;12.33;;;;;;;;;;4989125;28;20183;-66
2023/06/30 15:58:54;;;;;;;12.53;10.00;;;;;;;;;;4891038;29;20187;-69
2023/06/30 16:05:21;;;;;;;9.47;7.30;;;;;;;;;;4950224;29;20193;-69
2023/06/30 16:11:47;;;;;;;9.03;6.60;;;;;;;;;;4969456;28;20292;-69
2023/06/30 16:18:14;;;;;;;8.63;5.07;;;;;;;;;;4969105;28;20227;-69
2023/06/30 16:24:41;;;;;;;7.90;5.27;;;;;;;;;;4969237;28;20388;-69
2023/06/30 16:31:12;;;;;;;8.30;5.53;;;;;;;;;;4969210;28;20196;-69
2023/06/30 16:37:37;;;;;;;9.03;5.83;;;;;;;;;;4969268;28;20255;-69
2023/06/30 16:44:03;;;;;;;9.23;5.30;;;;;;;;;;4968637;28;20341;-69
2023/06/30 16:50:30;;;;;;;6.03;4.97;;;;;;;;;;4968951;28;20289;-69
2023/06/30 17:01:07;;;;;;;7.67;4.80;;;;;;;;;;4978289;28;20278;-69
2023/06/30 17:07:43;;;;;;;6.83;5.10;;;;;;;;;;4940620;28;20231;-70
2023/06/30 17:14:10;;;;;;;8.40;5.40;;;;;;;;;;4956180;28;20369;-68
2023/06/30 17:20:35;;;;;;;7.93;4.73;;;;;;;;;;4955606;28;20231;-72
2023/06/30 17:27:02;;;;;;;9.60;5.17;;;;;;;;;;4951605;28;20258;-72
2023/06/30 17:33:27;;;;;;;6.67;4.30;;;;;;;;;;4946532;28;20875;-72
2023/06/30 17:40:19;;;;;;;6.73;3.73;;;;;;;;;;4929738;28;43091;-72
2023/06/30 17:46:46;;;;;;;5.00;3.60;;;;;;;;;;4952471;28;20223;-73
2023/06/30 17:53:11;;;;;;;7.63;4.00;;;;;;;;;;4963878;28;20231;-72
2023/06/30 18:03:42;;;;;;;5.10;4.00;;;;;;;;;;4977685;28;20274;-73
2023/06/30 18:10:12;;;;;;;7.63;4.43;;;;;;;;;;4979899;28;20226;-72
2023/06/30 18:16:38;;;;;;;8.00;4.03;;;;;;;;;;4969339;28;20235;-72
2023/06/30 18:23:04;;;;;;;9.40;4.27;;;;;;;;;;4979835;28;20260;-72
2023/06/30 18:29:30;;;;;;;4.47;2.50;;;;;;;;;;4964565;28;20277;-73
2023/06/30 18:35:57;;;;;;;8.17;3.20;;;;;;;;;;4976299;28;20586;-72
2023/06/30 18:42:24;;;;;;;5.37;3.27;;;;;;;;;;4972489;28;20238;-72
2023/06/30 18:48:50;;;;;;;3.97;2.10;;;;;;;;;;4971223;28;20218;-72
2023/06/30 19:03:51;;;;;;;2.90;1.73;;;;;;;;;;4902796;29;20237;-73
2023/06/30 19:10:17;;;;;;;4.37;1.80;;;;;;;;;;4912353;28;20707;-72
2023/06/30 19:20:42;;;;;;;4.43;2.03;;;;;;;;;;4881662;29;20259;-72
2023/06/30 19:27:09;;;;;;;3.20;1.80;;;;;;;;;;4934780;28;20785;-72
2023/06/30 19:33:36;;;;;;;4.77;1.90;;;;;;;;;;4969561;28;20694;-67
2023/06/30 19:40:03;;;;;;;4.83;2.33;;;;;;;;;;4988829;28;20200;-64
2023/06/30 19:51:00;;;;;;;4.23;2.50;;;;;;;;;;4877899;29;20228;-67
2023/06/30 19:57:27;;;;;;;3.80;2.13;;;;;;;;;;4871860;29;20679;-67
2023/06/30 20:08:05;;;;;;;2.83;2.03;;;;;;;;;;4890531;29;20175;-68
2023/06/30 20:14:31;;;;;;;5.17;1.90;;;;;;;;;;4913100;29;20186;-67
2023/06/30 20:21:33;;;;;;;5.07;2.40;;;;;;;;;;4950106;29;20279;-67
2023/06/30 20:27:59;;;;;;;3.90;2.30;;;;;;;;;;4969111;28;20980;-67
2023/06/30 20:34:26;;;;;;;7.63;2.00;;;;;;;;;;4968543;28;20165;-67
2023/06/30 20:40:56;;;;;;;4.70;1.97;;;;;;;;;;4968869;28;20180;-67
2023/06/30 20:47:33;;;;;;;4.17;1.80;;;;;;;;;;4949584;29;20192;-67
2023/06/30 20:53:59;;;;;;;6.10;2.33;;;;;;;;;;4948981;29;20185;-68
2023/06/30 21:00:36;;;;;;;4.40;1.93;;;;;;;;;;4949164;29;20220;-67
2023/06/30 21:11:14;;;;;;;5.10;2.30;;;;;;;;;;4987563;28;20318;-67
2023/06/30 21:17:40;;;;;;;4.67;2.37;;;;;;;;;;4988039;28;20561;-67
2023/06/30 21:24:08;;;;;;;7.03;3.50;;;;;;;;;;4988012;28;20195;-67
2023/06/30 21:30:37;;;;;;;6.70;2.83;;;;;;;;;;4987914;28;20743;-67
2023/06/30 21:44:13;;;;;;;4.70;2.83;;;;;;;;;;4935655;28;20239;-67
2023/06/30 21:50:40;;;;;;;11.17;3.50;;;;;;;;;;4968173;28;20237;-66
2023/06/30 21:57:05;;;;;;;11.70;3.33;;;;;;;;;;4968079;28;20229;-68
2023/06/30 22:03:32;;;;;;;7.70;3.50;;;;;;;;;;4968087;28;20637;-68
2023/06/30 22:14:12;;;;;;;6.63;3.50;;;;;;;;;;5010459;28;20279;-67
2023/06/30 22:21:14;;;;;;;7.87;3.50;;;;;;;;;;5010448;28;20168;-67
2023/06/30 22:27:41;;;;;;;7.40;3.53;;;;;;;;;;5010093;28;20287;-67
2023/06/30 22:34:07;;;;;;;10.13;4.30;;;;;;;;;;5009886;28;20182;-67
2023/06/30 22:40:44;;;;;;;9.57;3.77;;;;;;;;;;5009548;28;20219;-67
2023/06/30 22:47:10;;;;;;;10.67;4.00;;;;;;;;;;5009763;28;20208;-67
2023/06/30 22:53:36;;;;;;;9.13;3.87;;;;;;;;;;5009740;28;20174;-67
2023/06/30 23:00:41;;;;;;;8.20;3.70;;;;;;;;;;4945213;28;20247;-68
2023/06/30 23:15:16;;;;;;;10.30;4.40;;;;;;;;;;4980848;28;20537;-67
2023/06/30 23:21:44;;;;;;;8.27;3.97;;;;;;;;;;4913598;29;20325;-67
2023/06/30 23:28:20;;;;;;;9.43;3.80;;;;;;;;;;4989520;28;20199;-66
2023/06/30 23:34:46;;;;;;;9.07;3.77;;;;;;;;;;4989248;28;20251;-67
2023/06/30 23:41:13;;;;;;;7.23;4.23;;;;;;;;;;4989146;28;20276;-67
2023/06/30 23:47:39;;;;;;;9.47;4.30;;;;;;;;;;4989303;28;20231;-67
2023/06/30 23:54:43;;;;;;;10.50;4.47;;;;;;;;;;4988691;28;21034;-67
